Time;durP1;ratioP1;P1;durP2;ratioP2;P2;SDS_P1;SDS_P2;PMS_P1;PMS_P2;Temp;Humidity;BMP_temperature;BMP_pressure;BME280_temperature;BME280_humidity;BME280_pressure;Samples;Min_cycle;Max_cycle;Signal;HPM_P1;HPM_P2
2021/03/28 00:01:07;;;;;;;4.10;1.93;;;;;;;10.34;47.20;96837.34;5009328;28;20222;-84
2021/03/28 00:03:38;;;;;;;3.93;1.90;;;;;;;10.28;47.25;96837.09;4965012;28;20236;-84
2021/03/28 00:06:19;;;;;;;3.53;1.63;;;;;;;10.35;46.91;96840.72;4992528;28;20834;-84
2021/03/28 00:09:05;;;;;;;3.27;1.90;;;;;;;10.34;46.90;96832.19;5008909;28;20229;-84
2021/03/28 00:11:32;;;;;;;3.30;2.00;;;;;;;10.39;47.06;96842.84;4994454;28;20361;-87
2021/03/28 00:14:03;;;;;;;4.53;1.80;;;;;;;10.40;46.89;96833.38;4980548;28;20901;-85
2021/03/28 00:16:45;;;;;;;2.93;1.80;;;;;;;10.41;46.84;96832.41;5002776;28;20682;-84
2021/03/28 00:19:22;;;;;;;2.37;1.60;;;;;;;10.38;46.56;96837.88;4981827;28;20705;-84
2021/03/28 00:21:54;;;;;;;3.03;2.10;;;;;;;10.36;46.56;96835.44;4995837;28;20223;-85
2021/03/28 00:24:25;;;;;;;3.17;1.90;;;;;;;10.33;46.54;96840.88;4994954;28;20231;-85
2021/03/28 00:27:10;;;;;;;2.10;1.80;;;;;;;10.37;46.48;96846.56;5008947;28;20766;-84
2021/03/28 00:29:54;;;;;;;2.23;1.63;;;;;;;10.39;46.11;96847.22;4998142;28;20284;-85
2021/03/28 00:32:27;;;;;;;4.67;1.83;;;;;;;10.39;46.39;96849.78;5008558;28;20223;-84
2021/03/28 00:35:09;;;;;;;3.77;1.80;;;;;;;10.40;46.24;96843.66;4989793;28;20386;-84
2021/03/28 00:37:36;;;;;;;2.60;1.80;;;;;;;10.39;46.27;96844.66;4990547;28;20223;-83
2021/03/28 00:40:22;;;;;;;4.43;1.80;;;;;;;10.41;45.95;96844.47;5002491;28;20203;-83
2021/03/28 00:43:06;;;;;;;4.30;3.27;;;;;;;10.39;46.08;96837.69;5005789;28;20277;-84
2021/03/28 00:48:51;;;;;;;3.60;1.90;;;;;;;10.39;45.67;96844.66;4986348;28;20424;-84
2021/03/28 00:51:20;;;;;;;1.90;1.50;;;;;;;10.36;45.52;96840.59;4990617;28;20235;-85
2021/03/28 00:53:55;;;;;;;4.10;1.70;;;;;;;10.38;45.62;96843.84;4969776;28;20832;-84
2021/03/28 00:56:26;;;;;;;3.10;1.80;;;;;;;10.45;45.57;96838.09;4984388;28;20242;-83
2021/03/28 00:59:00;;;;;;;3.63;1.70;;;;;;;10.47;45.39;96838.75;4979824;28;20227;-84
2021/03/28 01:01:35;;;;;;;2.17;1.70;;;;;;;10.48;45.16;96832.66;4994346;28;20582;-84
2021/03/28 01:04:38;;;;;;;3.10;1.60;;;;;;;10.48;45.25;96825.75;5008987;28;20191;-85
2021/03/28 01:07:17;;;;;;;3.13;1.67;;;;;;;10.43;45.26;96830.50;4990742;28;20782;-84
2021/03/28 01:10:33;;;;;;;2.13;1.70;;;;;;;10.46;45.33;96824.25;4993281;28;20291;-84
2021/03/28 01:13:38;;;;;;;2.37;1.30;;;;;;;10.44;45.23;96828.75;5008056;28;20696;-83
2021/03/28 01:16:49;;;;;;;2.90;2.00;;;;;;;10.44;45.31;96821.03;4942278;28;20315;-84
2021/03/28 01:19:36;;;;;;;3.83;1.67;;;;;;;10.47;45.20;96820.72;4967143;28;20321;-84
2021/03/28 01:22:18;;;;;;;3.37;1.63;;;;;;;10.42;45.21;96813.44;5006401;28;20675;-84
2021/03/28 01:24:55;;;;;;;2.60;1.80;;;;;;;10.44;45.18;96818.44;4994374;28;20230;-85
2021/03/28 01:27:25;;;;;;;1.80;1.30;;;;;;;10.45;45.09;96813.16;4993608;28;20226;-84
2021/03/28 01:30:06;;;;;;;2.90;1.73;;;;;;;10.50;45.41;96812.72;4992254;28;20309;-84
2021/03/28 01:32:37;;;;;;;5.53;1.70;;;;;;;10.50;45.29;96815.28;5006744;28;20284;-84
2021/03/28 01:35:20;;;;;;;2.83;1.70;;;;;;;10.50;45.37;96812.72;5011942;28;20314;-84
2021/03/28 01:37:51;;;;;;;3.13;1.70;;;;;;;10.48;45.47;96817.19;4996367;28;20764;-84
2021/03/28 01:40:25;;;;;;;2.67;1.70;;;;;;;10.44;45.08;96803.00;4993747;28;20195;-84
2021/03/28 01:43:09;;;;;;;2.43;1.67;;;;;;;10.41;45.56;96808.44;4993107;28;20648;-85
2021/03/28 01:45:43;;;;;;;4.20;1.70;;;;;;;10.42;45.65;96808.28;5004488;28;20230;-84
2021/03/28 01:48:35;;;;;;;4.20;2.10;;;;;;;10.39;46.37;96804.22;5012347;28;20222;-84
2021/03/28 01:51:16;;;;;;;3.90;1.80;;;;;;;10.36;46.38;96808.88;4995345;28;20242;-85
2021/03/28 01:53:52;;;;;;;4.57;1.87;;;;;;;10.32;46.85;96798.06;4999679;28;20230;-83
2021/03/28 01:56:35;;;;;;;2.57;1.60;;;;;;;10.26;47.09;96806.34;5001139;28;20735;-84
2021/03/28 01:59:21;;;;;;;3.07;1.77;;;;;;;10.24;47.04;96804.88;5001480;28;20230;-84
2021/03/28 02:01:53;;;;;;;4.13;1.90;;;;;;;10.26;47.06;96803.78;4972545;28;20307;-84
2021/03/28 02:04:33;;;;;;;2.80;1.60;;;;;;;10.29;47.68;96800.09;4996336;28;20306;-84
2021/03/28 02:07:13;;;;;;;2.20;1.67;;;;;;;10.29;47.62;96808.66;5008372;28;20215;-84
2021/03/28 02:09:49;;;;;;;2.40;1.70;;;;;;;10.29;47.11;96802.69;4991358;28;20265;-83
2021/03/28 02:12:20;;;;;;;3.70;1.70;;;;;;;10.33;47.29;96799.69;5003917;28;20304;-84
2021/03/28 02:15:25;;;;;;;2.13;1.60;;;;;;;10.30;47.62;96799.16;5003207;28;20285;-84
2021/03/28 02:18:00;;;;;;;4.17;1.87;;;;;;;10.33;47.30;96798.88;4995509;28;20226;-84
2021/03/28 02:20:39;;;;;;;4.07;1.90;;;;;;;10.33;47.37;96797.09;5010922;28;20288;-84
2021/03/28 02:23:18;;;;;;;1.83;1.63;;;;;;;10.28;47.63;96795.91;4972081;28;20893;-85
2021/03/28 02:25:56;;;;;;;3.20;1.73;;;;;;;10.25;47.73;96798.78;4976074;28;20688;-84
2021/03/28 02:28:34;;;;;;;4.83;1.83;;;;;;;10.25;47.85;96803.91;5004952;28;20200;-85
2021/03/28 02:31:09;;;;;;;3.67;1.83;;;;;;;10.21;47.76;96800.81;4994642;28;20218;-83
2021/03/28 02:33:49;;;;;;;2.57;1.80;;;;;;;10.17;47.90;96793.53;5010903;28;20234;-84
2021/03/28 02:36:22;;;;;;;2.07;1.53;;;;;;;10.10;48.40;96792.47;4978390;28;20231;-84
2021/03/28 02:39:13;;;;;;;4.17;1.97;;;;;;;10.13;48.42;96792.19;4991273;28;20263;-84
2021/03/28 02:41:50;;;;;;;2.33;1.70;;;;;;;10.16;48.26;96784.19;4971361;28;20291;-84
2021/03/28 02:44:26;;;;;;;2.00;1.60;;;;;;;10.16;48.26;96787.56;4978808;28;20655;-84
2021/03/28 02:47:01;;;;;;;2.07;1.70;;;;;;;10.17;48.39;96790.94;5010983;28;20603;-84
2021/03/28 02:49:46;;;;;;;2.90;1.73;;;;;;;10.14;48.34;96780.94;4995264;28;20293;-83
2021/03/28 02:52:26;;;;;;;3.17;1.80;;;;;;;10.16;48.51;96797.03;4991445;28;20211;-84
2021/03/28 02:55:08;;;;;;;4.00;1.80;;;;;;;10.13;48.37;96795.56;5008929;28;20753;-84
2021/03/28 02:57:58;;;;;;;2.87;1.70;;;;;;;10.14;48.54;96804.91;4989332;28;20233;-84
2021/03/28 03:00:46;;;;;;;2.10;1.80;;;;;;;10.16;48.52;96800.44;4971193;28;20278;-85
2021/03/28 03:03:33;;;;;;;2.43;1.80;;;;;;;10.14;48.70;96804.91;5000684;28;20230;-84
2021/03/28 03:06:12;;;;;;;3.33;1.70;;;;;;;10.10;48.80;96800.19;5010910;28;20246;-85
2021/03/28 03:08:42;;;;;;;2.60;1.80;;;;;;;10.09;48.81;96804.53;4992992;28;20227;-84
2021/03/28 03:11:56;;;;;;;3.27;2.00;;;;;;;10.09;48.99;96796.00;4990485;28;20220;-83
2021/03/28 03:14:37;;;;;;;3.77;1.60;;;;;;;10.07;48.74;96806.41;4967858;28;20700;-84
2021/03/28 03:17:40;;;;;;;2.17;1.50;;;;;;;10.05;49.05;96805.75;5000393;28;20646;-85
2021/03/28 03:20:24;;;;;;;1.70;1.40;;;;;;;10.08;49.17;96807.22;4987231;28;20732;-84
2021/03/28 03:23:37;;;;;;;2.60;1.60;;;;;;;10.05;49.39;96804.00;4971261;28;20228;-84
2021/03/28 03:26:47;;;;;;;2.27;1.70;;;;;;;10.02;49.46;96801.69;4981794;28;20230;-84
2021/03/28 03:29:38;;;;;;;2.07;1.70;;;;;;;10.02;48.97;96801.69;4996155;28;20227;-84
2021/03/28 03:32:28;;;;;;;2.97;1.80;;;;;;;9.95;49.68;96797.28;5001298;28;20733;-83
2021/03/28 03:35:13;;;;;;;3.47;1.70;;;;;;;9.91;49.85;96801.91;5004147;28;20227;-84
2021/03/28 03:38:09;;;;;;;4.73;1.80;;;;;;;9.90;49.47;96808.00;4991290;28;20204;-85
2021/03/28 03:40:39;;;;;;;2.77;1.80;;;;;;;9.87;49.62;96804.88;5008977;28;20195;-84
2021/03/28 03:43:26;;;;;;;3.23;2.13;;;;;;;9.88;49.69;96806.50;5006336;28;20191;-84
2021/03/28 03:46:04;;;;;;;2.77;2.00;;;;;;;9.84;50.17;96807.75;4990125;28;20223;-84
2021/03/28 03:48:43;;;;;;;2.77;1.80;;;;;;;9.85;49.83;96809.38;4997549;28;20233;-84
2021/03/28 03:51:33;;;;;;;3.00;2.03;;;;;;;9.83;50.02;96814.66;5009666;28;20231;-84
2021/03/28 03:54:04;;;;;;;2.53;1.70;;;;;;;9.79;49.89;96818.47;4970843;28;20228;-85
2021/03/28 03:56:47;;;;;;;2.80;1.93;;;;;;;9.76;50.33;96823.91;4983460;28;20231;-84
2021/03/28 03:59:22;;;;;;;3.90;2.00;;;;;;;9.67;50.11;96822.97;5009563;28;20698;-83
2021/03/28 04:02:01;;;;;;;3.20;2.00;;;;;;;9.64;50.44;96817.28;5006086;28;20237;-84
2021/03/28 04:04:43;;;;;;;2.80;1.87;;;;;;;9.54;50.53;96822.47;4989945;28;20295;-84
2021/03/28 04:07:33;;;;;;;3.33;1.47;;;;;;;9.50;50.62;96822.88;4989951;28;20196;-85
2021/03/28 04:10:17;;;;;;;5.90;2.00;;;;;;;9.45;50.84;96825.84;4990963;28;20270;-85
2021/03/28 04:12:53;;;;;;;2.13;1.57;;;;;;;9.44;50.66;96815.72;4970293;28;20231;-85
2021/03/28 04:15:30;;;;;;;2.00;1.80;;;;;;;9.36;50.94;96821.56;4971011;28;20235;-83
2021/03/28 04:18:22;;;;;;;4.23;2.00;;;;;;;9.37;50.78;96824.94;4970609;28;20716;-84
2021/03/28 04:20:57;;;;;;;2.50;1.80;;;;;;;9.36;50.47;96821.56;4977451;28;20226;-85
2021/03/28 04:23:43;;;;;;;3.00;1.97;;;;;;;9.39;50.13;96829.00;5009389;28;20222;-85
2021/03/28 04:26:23;;;;;;;3.57;1.90;;;;;;;9.38;50.43;96824.81;4992277;28;20315;-85
2021/03/28 04:28:55;;;;;;;3.23;1.77;;;;;;;9.38;50.42;96819.66;4989310;28;20231;-85
2021/03/28 04:31:55;;;;;;;3.03;1.77;;;;;;;9.36;50.05;96826.72;5000009;28;20200;-85
2021/03/28 04:34:25;;;;;;;4.57;1.70;;;;;;;9.34;50.16;96820.91;4990267;28;20215;-84
2021/03/28 04:37:21;;;;;;;3.43;1.80;;;;;;;9.30;50.46;96829.81;4970702;28;20318;-84
2021/03/28 04:40:36;;;;;;;2.07;1.50;;;;;;;9.27;50.48;96828.34;5000153;28;20311;-84
2021/03/28 04:43:46;;;;;;;2.43;1.90;;;;;;;9.23;50.63;96833.91;4977358;28;20273;-84
2021/03/28 04:46:44;;;;;;;4.07;2.10;;;;;;;9.22;50.81;96833.09;4962807;28;20321;-84
2021/03/28 04:49:30;;;;;;;4.80;2.10;;;;;;;9.20;50.77;96840.13;4987706;28;20218;-84
2021/03/28 04:52:35;;;;;;;2.67;1.97;;;;;;;9.20;50.59;96842.69;5007606;28;20310;-83
2021/03/28 04:55:28;;;;;;;5.10;2.20;;;;;;;9.17;50.75;96844.72;5000020;28;20214;-84
2021/03/28 04:58:23;;;;;;;3.53;1.73;;;;;;;9.14;50.54;96852.69;5012418;28;20230;-84
2021/03/28 05:01:20;;;;;;;1.90;1.60;;;;;;;9.04;50.78;96857.03;4997035;28;20250;-84
2021/03/28 05:04:08;;;;;;;2.70;1.73;;;;;;;9.02;50.59;96864.88;4980315;28;20645;-84
2021/03/28 05:06:59;;;;;;;2.30;1.60;;;;;;;9.04;50.92;96869.88;5005532;28;20282;-84
2021/03/28 05:09:44;;;;;;;4.50;1.70;;;;;;;8.98;51.04;96860.94;5012295;28;20310;-84
2021/03/28 05:12:47;;;;;;;2.83;1.87;;;;;;;8.96;50.66;96861.09;5005861;28;20229;-85
2021/03/28 05:15:49;;;;;;;2.57;1.80;;;;;;;8.95;51.14;96871.50;5010653;28;20245;-84
2021/03/28 05:19:05;;;;;;;1.70;1.40;;;;;;;8.90;51.09;96871.06;4992773;28;20305;-84
2021/03/28 05:22:03;;;;;;;3.37;2.00;;;;;;;8.91;51.72;96877.84;4972445;28;20815;-84
2021/03/28 05:25:16;;;;;;;2.13;1.50;;;;;;;8.93;51.36;96881.91;4958293;28;20644;-84
2021/03/28 05:28:06;;;;;;;4.33;1.90;;;;;;;8.91;51.29;96880.41;5014125;28;20229;-83
2021/03/28 05:31:04;;;;;;;3.03;1.80;;;;;;;8.93;51.61;96886.22;5001653;28;20226;-85
2021/03/28 05:34:08;;;;;;;3.60;1.60;;;;;;;8.95;51.27;96898.00;5007389;28;20226;-84
2021/03/28 05:37:02;;;;;;;3.83;1.70;;;;;;;9.05;50.84;96892.84;5011399;28;20256;-82
2021/03/28 05:39:56;;;;;;;3.83;1.70;;;;;;;9.00;50.94;96887.31;4989654;28;20314;-83
2021/03/28 05:42:48;;;;;;;3.60;1.80;;;;;;;9.03;50.86;96897.34;5002619;28;20219;-83
2021/03/28 05:45:45;;;;;;;1.57;1.30;;;;;;;9.03;50.78;96896.53;4994910;28;20281;-84
2021/03/28 05:48:42;;;;;;;2.27;1.70;;;;;;;9.04;50.91;96900.72;5008020;28;20269;-82
2021/03/28 05:51:36;;;;;;;2.63;1.50;;;;;;;9.09;50.73;96901.91;4998295;28;20226;-83
2021/03/28 05:54:57;;;;;;;3.30;1.80;;;;;;;9.12;50.94;96911.13;4992682;28;20231;-83
2021/03/28 05:57:51;;;;;;;3.93;1.60;;;;;;;9.17;50.63;96914.91;4991940;28;20731;-83
2021/03/28 06:00:55;;;;;;;2.43;1.50;;;;;;;9.22;50.78;96912.75;4999327;28;20667;-85
2021/03/28 06:04:08;;;;;;;3.77;1.83;;;;;;;9.22;50.74;96914.53;5010291;28;20222;-81
2021/03/28 06:07:17;;;;;;;3.43;1.70;;;;;;;9.21;50.80;96921.41;4978676;28;20232;-82
2021/03/28 06:10:21;;;;;;;2.27;1.70;;;;;;;9.22;50.26;96920.47;5010155;28;20233;-83
2021/03/28 06:13:11;;;;;;;3.27;1.87;;;;;;;9.21;50.17;96923.97;5017476;28;20493;-84
2021/03/28 06:16:00;;;;;;;2.20;1.77;;;;;;;9.30;50.27;96933.44;5000257;28;20318;-81
2021/03/28 06:19:05;;;;;;;1.97;1.50;;;;;;;9.31;50.15;96937.63;5005555;28;20230;-82
2021/03/28 06:22:00;;;;;;;1.90;1.70;;;;;;;9.29;49.85;96931.81;5016031;28;20237;-82
2021/03/28 06:24:58;;;;;;;2.63;1.93;;;;;;;9.33;49.71;96943.44;4997117;28;20318;-83
2021/03/28 06:27:55;;;;;;;3.53;1.57;;;;;;;9.49;49.47;96940.34;5008567;28;20229;-81
2021/03/28 06:30:51;;;;;;;3.17;1.70;;;;;;;9.57;48.71;96955.09;5003112;28;20227;-83
2021/03/28 06:33:48;;;;;;;2.70;1.80;;;;;;;9.64;48.82;96949.25;5010028;28;20224;-85
2021/03/28 06:36:36;;;;;;;3.27;1.60;;;;;;;9.75;48.56;96950.88;5017693;28;20244;-82
2021/03/28 06:39:38;;;;;;;3.00;1.60;;;;;;;9.83;47.93;96955.31;5018687;28;20231;-80
2021/03/28 06:42:22;;;;;;;3.17;1.70;;;;;;;9.98;48.34;96956.53;4998873;28;20258;-83
2021/03/28 06:45:14;;;;;;;2.60;1.60;;;;;;;10.07;47.96;96957.44;5007834;28;20239;-83
2021/03/28 06:47:56;;;;;;;3.00;1.50;;;;;;;10.16;47.36;96961.75;4975174;28;20222;-80
2021/03/28 06:50:53;;;;;;;3.70;1.67;;;;;;;10.37;47.13;96970.13;4987770;28;20227;-80
2021/03/28 06:53:52;;;;;;;2.83;1.60;;;;;;;10.60;46.39;96975.72;4998129;28;20362;-79
2021/03/28 06:57:11;;;;;;;1.93;1.50;;;;;;;10.61;46.71;96974.75;4997349;28;20231;-81
2021/03/28 07:00:06;;;;;;;3.03;1.70;;;;;;;10.60;46.14;96978.28;4999399;28;20234;-81
2021/03/28 07:03:11;;;;;;;3.83;1.60;;;;;;;10.51;46.47;96974.00;5012972;28;20238;-82
2021/03/28 07:05:45;;;;;;;3.37;1.60;;;;;;;10.59;45.97;96980.06;5002130;28;20749;-83
2021/03/28 07:09:02;;;;;;;2.63;1.67;;;;;;;10.84;45.46;96986.31;5010549;28;20225;-78
2021/03/28 07:11:35;;;;;;;2.97;1.50;;;;;;;10.95;45.18;96988.72;4947989;28;20228;-80
2021/03/28 07:14:46;;;;;;;4.43;1.70;;;;;;;11.06;44.78;96982.53;4975728;28;20234;-80
2021/03/28 07:17:45;;;;;;;2.73;1.57;;;;;;;11.24;44.28;96985.13;4966581;28;20751;-78
2021/03/28 07:20:24;;;;;;;3.27;1.70;;;;;;;11.40;44.04;96982.72;4992353;28;20235;-78
2021/03/28 07:23:25;;;;;;;2.40;1.53;;;;;;;11.52;43.54;96984.13;4993992;28;20293;-79
2021/03/28 07:25:55;;;;;;;4.40;1.77;;;;;;;11.71;43.36;96983.16;5008628;28;20231;-80
2021/03/28 07:29:10;;;;;;;3.03;1.80;;;;;;;11.62;42.90;96974.53;5006964;28;20191;-82
2021/03/28 07:31:50;;;;;;;2.83;1.33;;;;;;;11.69;43.33;96970.41;4993503;28;20219;-82
2021/03/28 07:34:54;;;;;;;3.33;1.53;;;;;;;11.85;42.33;96974.91;4993859;28;20203;-81
2021/03/28 07:37:51;;;;;;;4.57;1.67;;;;;;;12.14;42.48;96973.81;4990071;28;20211;-80
2021/03/28 07:40:56;;;;;;;2.70;1.80;;;;;;;12.26;41.40;96981.16;4989101;28;20251;-84
2021/03/28 07:44:07;;;;;;;4.03;1.87;;;;;;;12.36;40.56;96987.03;4980048;28;20250;-82
2021/03/28 07:47:20;;;;;;;2.87;1.63;;;;;;;12.47;40.40;96980.78;4981842;28;20306;-83
2021/03/28 07:57:29;;;;;;;3.80;1.77;;;;;;;13.23;38.79;96980.78;4922125;29;20229;-82
2021/03/28 08:00:20;;;;;;;3.17;1.97;;;;;;;13.26;39.02;96980.47;4930021;29;20243;-84
2021/03/28 08:03:27;;;;;;;4.93;1.77;;;;;;;13.05;39.91;96978.28;5004573;28;20234;-83
2021/03/28 08:20:23;;;;;;;6.63;1.97;;;;;;;14.00;37.52;96965.78;4882807;29;20337;-84
2021/03/28 08:23:53;;;;;;;3.33;1.87;;;;;;;14.39;36.57;96968.47;4843198;29;20318;-83
2021/03/28 08:27:19;;;;;;;;;;;;;;;;;;;;;
2021/03/28 08:44:27;;;;;;;5.10;2.03;;;;;;;13.94;37.41;96976.78;4916415;28;20196;-82
2021/03/28 08:54:01;;;;;;;3.83;1.70;;;;;;;14.74;35.03;96973.22;4911688;29;20237;-83
2021/03/28 08:57:08;;;;;;;3.97;1.80;;;;;;;14.85;34.44;96965.06;4902004;29;20229;-84
2021/03/28 09:31:47;;;;;;;2.37;1.57;;;;;;;15.22;32.64;96960.97;4815643;29;20247;-84
2021/03/28 10:27:13;;;;;;;2.15;1.50;;;;;;;16.41;31.47;96903.97;4770382;29;20283;-83
2021/03/28 10:33:53;;;;;;;;;;;;;;;;;;;;;
2021/03/28 10:37:12;;;;;;;4.63;1.70;;;;;;;16.76;29.98;96912.03;4904161;29;20265;-82
2021/03/28 10:43:27;;;;;;;3.42;1.90;;;;;;;16.68;30.52;96906.94;4900455;29;20717;-83
2021/03/28 10:46:29;;;;;;;2.08;1.63;;;;;;;16.83;31.57;96912.91;4948615;28;20245;-82
2021/03/28 10:53:10;;;;;;;4.10;1.67;;;;;;;16.97;30.28;96904.25;4986426;28;20222;-82
2021/03/28 10:56:23;;;;;;;2.60;1.50;;;;;;;17.06;29.82;96908.38;4953132;28;20494;-83
2021/03/28 11:06:22;;;;;;;1.60;1.30;;;;;;;16.71;29.65;96898.78;4951993;28;20236;-83
2021/03/28 11:12:23;;;;;;;1.80;1.42;;;;;;;16.86;29.63;96897.75;4952190;28;20770;-82
2021/03/28 11:15:29;;;;;;;2.92;1.27;;;;;;;16.99;29.93;96897.06;4951665;28;20231;-83
2021/03/28 11:18:40;;;;;;;1.88;1.30;;;;;;;16.90;30.27;96888.59;4932032;28;20772;-83
2021/03/28 11:29:08;;;;;;;;;;;;;;;;;;;;;
2021/03/28 11:31:45;;;;;;;2.67;1.70;;;;;;;16.99;29.77;96878.88;4993048;28;20302;-83
2021/03/28 11:35:09;;;;;;;2.20;1.60;;;;;;;17.07;30.17;96870.94;5006891;28;20227;-82
2021/03/28 11:41:54;;;;;;;2.20;1.40;;;;;;;17.06;29.90;96868.53;4823928;29;20340;-83
2021/03/28 11:45:05;;;;;;;2.05;1.48;;;;;;;17.16;30.00;96867.22;4907744;29;20229;-83
2021/03/28 11:48:02;;;;;;;2.22;1.58;;;;;;;16.98;29.90;96858.22;4994632;28;20226;-83
2021/03/28 11:51:06;;;;;;;4.65;1.65;;;;;;;17.21;30.22;96864.06;4987847;28;20224;-83
2021/03/28 11:54:27;;;;;;;3.05;1.80;;;;;;;17.32;30.26;96858.34;4964173;28;20306;-84
2021/03/28 11:57:24;;;;;;;3.15;1.60;;;;;;;17.61;32.58;96855.59;4982871;28;20250;-84
2021/03/28 11:59:55;;;;;;;3.55;1.90;;;;;;;17.68;31.14;96852.28;5008245;28;20245;-84
2021/03/28 12:03:03;;;;;;;3.53;1.90;;;;;;;17.73;30.68;96858.50;4989273;28;20603;-86
2021/03/28 12:19:02;;;;;;;3.03;1.80;;;;;;;18.38;29.15;96844.25;4888144;28;20221;-86
2021/03/28 12:25:01;;;;;;;3.75;1.60;;;;;;;18.72;29.42;96840.78;4907811;28;20254;-84
2021/03/28 12:31:33;;;;;;;2.80;1.40;;;;;;;18.36;28.98;96833.19;4895533;29;20222;-83
2021/03/28 12:34:20;;;;;;;4.90;1.83;;;;;;;18.32;27.69;96833.78;4994281;28;20254;-83
2021/03/28 12:36:53;;;;;;;4.65;1.70;;;;;;;18.04;28.91;96832.06;4997755;28;20222;-80
2021/03/28 12:39:22;;;;;;;2.70;1.50;;;;;;;18.13;27.68;96830.09;5015631;28;20222;-82
2021/03/28 12:42:17;;;;;;;3.85;1.83;;;;;;;18.06;27.26;96824.84;5015061;28;20261;-81
2021/03/28 12:44:46;;;;;;;3.28;1.60;;;;;;;17.99;27.84;96815.38;5013413;28;20239;-83
2021/03/28 12:47:18;;;;;;;3.03;1.67;;;;;;;17.83;27.84;96813.88;5012414;28;20304;-82
2021/03/28 12:49:51;;;;;;;3.65;1.70;;;;;;;17.94;27.79;96813.34;5023172;28;20262;-83
2021/03/28 12:52:23;;;;;;;2.17;1.50;;;;;;;18.06;27.34;96813.63;5015613;28;20583;-80
2021/03/28 12:55:27;;;;;;;3.53;1.50;;;;;;;17.99;26.79;96803.16;5015590;28;20234;-81
2021/03/28 12:58:11;;;;;;;2.88;1.50;;;;;;;18.05;27.02;96801.59;5011751;28;20305;-80
2021/03/28 13:00:49;;;;;;;2.22;1.33;;;;;;;18.09;27.87;96800.97;5013307;28;20242;-83
2021/03/28 13:03:24;;;;;;;1.75;1.45;;;;;;;18.25;27.33;96799.88;5015602;28;20234;-82
2021/03/28 13:06:22;;;;;;;2.75;1.50;;;;;;;18.48;27.01;96804.75;5013227;28;20230;-82
2021/03/28 13:08:53;;;;;;;3.30;1.50;;;;;;;18.62;26.76;96801.22;5013812;28;20230;-82
2021/03/28 13:11:38;;;;;;;3.15;1.60;;;;;;;18.44;26.88;96793.13;5015551;28;20222;-82
2021/03/28 13:14:07;;;;;;;3.13;1.63;;;;;;;18.52;27.95;96800.75;5014028;28;20282;-82
2021/03/28 13:16:53;;;;;;;3.60;1.42;;;;;;;18.72;27.56;96795.63;5015267;28;20226;-82
2021/03/28 13:19:26;;;;;;;4.00;1.80;;;;;;;18.87;27.65;96793.63;5014401;28;20222;-83
2021/03/28 13:22:27;;;;;;;2.10;1.63;;;;;;;18.93;26.73;96801.47;5012833;28;20234;-82
2021/03/28 13:25:19;;;;;;;1.50;1.30;;;;;;;18.90;27.82;96785.41;5012955;28;20877;-83
2021/03/28 13:27:47;;;;;;;2.95;1.67;;;;;;;18.82;27.60;96778.59;4974963;28;20227;-83
2021/03/28 13:30:21;;;;;;;2.85;1.98;;;;;;;18.77;27.65;96774.97;4974324;28;20310;-82
2021/03/28 13:32:49;;;;;;;3.90;1.70;;;;;;;18.71;27.01;96766.13;4981514;28;20223;-83
2021/03/28 13:35:28;;;;;;;2.42;1.70;;;;;;;18.83;27.53;96763.75;4993694;28;20247;-82
2021/03/28 13:37:56;;;;;;;2.10;1.38;;;;;;;18.91;26.85;96768.75;4994851;28;20227;-84
2021/03/28 13:40:29;;;;;;;2.17;1.50;;;;;;;18.86;26.22;96758.09;4994409;28;20228;-83
2021/03/28 13:42:58;;;;;;;3.83;1.73;;;;;;;18.82;26.48;96759.53;4993916;28;20439;-80
2021/03/28 13:45:30;;;;;;;5.38;2.20;;;;;;;18.82;26.92;96770.75;4991125;28;20239;-82
2021/03/28 13:47:57;;;;;;;3.03;1.85;;;;;;;18.86;27.62;96771.94;4992051;28;20292;-82
2021/03/28 13:50:47;;;;;;;8.73;1.58;;;;;;;19.00;26.53;96769.38;4991509;28;20295;-82
2021/03/28 13:53:42;;;;;;;5.13;1.50;;;;;;;19.08;28.55;96766.53;5009393;28;20258;-79
2021/03/28 13:56:44;;;;;;;6.32;1.70;;;;;;;19.11;27.88;96760.94;5008246;28;20257;-82
2021/03/28 13:59:18;;;;;;;5.55;1.88;;;;;;;19.18;29.93;96762.53;5002632;28;20242;-84
2021/03/28 14:01:57;;;;;;;3.45;1.80;;;;;;;18.93;26.96;96767.56;4996880;28;20214;-85
2021/03/28 14:04:36;;;;;;;2.88;2.10;;;;;;;18.93;29.22;96764.13;5000863;28;20191;-85
2021/03/28 14:07:15;;;;;;;2.53;1.60;;;;;;;18.98;28.15;96756.50;5010670;28;20293;-82
2021/03/28 14:09:46;;;;;;;1.58;1.45;;;;;;;19.07;28.95;96751.88;4997838;28;20246;-83
2021/03/28 14:12:23;;;;;;;2.55;1.58;;;;;;;19.16;28.48;96756.72;4992733;28;20310;-82
2021/03/28 14:15:11;;;;;;;3.13;1.80;;;;;;;19.18;27.10;96754.72;5006831;28;20910;-81
2021/03/28 14:17:38;;;;;;;2.25;1.50;;;;;;;19.09;27.73;96755.91;5007386;28;20699;-86
2021/03/28 14:20:15;;;;;;;6.63;1.77;;;;;;;18.91;27.96;96759.13;4997233;28;20644;-85
2021/03/28 14:22:44;;;;;;;6.32;1.80;;;;;;;18.95;27.48;96760.31;5008247;28;20206;-84
2021/03/28 14:25:26;;;;;;;2.05;1.50;;;;;;;19.11;26.67;96759.13;4992076;28;20224;-85
2021/03/28 14:27:55;;;;;;;4.57;1.80;;;;;;;19.12;26.54;96752.09;4993220;28;20294;-83
2021/03/28 14:30:32;;;;;;;2.58;1.80;;;;;;;18.93;25.95;96751.09;4989390;28;20234;-83
2021/03/28 14:33:02;;;;;;;2.97;1.50;;;;;;;18.87;26.56;96747.47;4992040;28;20250;-82
2021/03/28 14:35:44;;;;;;;3.85;1.60;;;;;;;18.95;27.37;96747.28;4995156;28;20233;-80
2021/03/28 14:39:03;;;;;;;1.65;1.50;;;;;;;19.05;27.78;96741.63;5003670;28;20227;-81
2021/03/28 14:41:48;;;;;;;2.88;1.70;;;;;;;19.14;27.18;96739.63;4974091;28;20232;-83
2021/03/28 14:46:50;;;;;;;8.88;5.00;;;;;;;19.35;29.09;96736.00;5064924;22;20253;-82
2021/03/28 14:49:31;;;;;;;5.13;2.85;;;;;;;19.26;27.83;96738.81;5045787;28;20811;-82
2021/03/28 14:52:11;;;;;;;2.60;1.50;;;;;;;19.20;26.89;96734.44;5051869;28;20212;-81
2021/03/28 14:54:42;;;;;;;3.95;1.95;;;;;;;19.22;27.82;96726.41;5049549;28;20230;-79
2021/03/28 14:57:15;;;;;;;4.78;1.58;;;;;;;19.34;28.28;96724.75;5029435;28;20225;-81
2021/03/28 14:59:51;;;;;;;2.78;1.63;;;;;;;19.36;27.60;96727.97;5032109;28;20717;-81
2021/03/28 15:02:42;;;;;;;5.40;4.60;;;;;;;19.36;27.16;96727.16;5031418;28;20225;-81
2021/03/28 15:05:27;;;;;;;4.10;3.00;;;;;;;19.37;27.30;96726.16;5032607;28;20230;-81
2021/03/28 15:08:01;;;;;;;5.40;3.78;;;;;;;19.30;27.94;96718.31;5033070;28;20241;-80
2021/03/28 15:10:33;;;;;;;5.72;1.55;;;;;;;19.21;26.61;96717.75;5032743;28;20232;-82
2021/03/28 15:13:14;;;;;;;3.30;1.70;;;;;;;19.07;27.63;96716.13;5034521;28;20886;-80
2021/03/28 15:15:44;;;;;;;2.92;1.70;;;;;;;18.86;27.47;96714.53;5033097;28;20226;-80
2021/03/28 15:18:23;;;;;;;3.78;1.73;;;;;;;18.86;28.32;96708.50;5033077;28;20217;-82
2021/03/28 15:21:01;;;;;;;4.00;2.47;;;;;;;18.91;28.46;96714.75;5033411;28;20230;-81
2021/03/28 15:23:32;;;;;;;4.95;2.75;;;;;;;19.04;28.62;96707.94;5032286;28;20232;-82
2021/03/28 15:26:26;;;;;;;5.07;3.88;;;;;;;19.05;27.32;96712.91;5032351;28;20230;-80
2021/03/28 15:28:56;;;;;;;3.40;2.70;;;;;;;19.02;27.74;96715.97;5031641;28;20222;-83
2021/03/28 15:31:37;;;;;;;3.40;1.90;;;;;;;19.07;26.77;96710.91;5032348;28;20222;-81
2021/03/28 15:34:09;;;;;;;2.78;1.80;;;;;;;19.09;28.35;96715.94;5016747;28;20218;-82
2021/03/28 15:36:48;;;;;;;3.53;1.80;;;;;;;19.08;26.76;96714.34;5021461;28;20236;-82
2021/03/28 15:39:40;;;;;;;3.05;1.75;;;;;;;19.01;28.29;96695.28;5031289;28;20225;-82
2021/03/28 15:42:45;;;;;;;7.68;2.45;;;;;;;18.87;28.69;96707.50;5028189;28;20636;-86
2021/03/28 15:45:33;;;;;;;5.15;1.70;;;;;;;18.82;27.15;96697.69;5031737;28;20253;-82
2021/03/28 15:48:18;;;;;;;3.83;2.88;;;;;;;18.55;26.31;96693.41;5033539;28;20658;-81
2021/03/28 15:51:09;;;;;;;6.25;2.92;;;;;;;18.45;25.64;96693.00;5032490;28;20236;-82
2021/03/28 15:54:03;;;;;;;6.50;2.90;;;;;;;18.37;25.75;96693.19;5016733;28;20230;-82
2021/03/28 15:56:36;;;;;;;5.25;3.40;;;;;;;18.34;25.80;96690.97;5023522;28;20226;-82
2021/03/28 15:59:06;;;;;;;3.35;1.75;;;;;;;18.23;25.65;96697.56;5034580;28;20229;-82
2021/03/28 16:02:15;;;;;;;3.55;2.03;;;;;;;18.18;25.67;96699.97;5024829;28;20238;-82
2021/03/28 16:04:52;;;;;;;2.47;1.75;;;;;;;18.00;25.70;96697.91;5012780;28;20233;-81
2021/03/28 16:07:35;;;;;;;2.33;1.50;;;;;;;17.95;25.31;96692.47;5034198;28;20236;-82
2021/03/28 16:10:30;;;;;;;2.88;1.65;;;;;;;17.83;25.77;96700.06;5023648;28;20230;-81
2021/03/28 16:13:43;;;;;;;3.08;1.75;;;;;;;17.81;26.14;96701.22;5034807;28;20222;-82
2021/03/28 16:16:45;;;;;;;2.95;1.40;;;;;;;17.88;26.50;96699.47;4986295;28;20222;-80
2021/03/28 16:19:41;;;;;;;1.85;1.55;;;;;;;17.79;27.22;96695.41;5032837;28;20700;-79